sensor_id;sensor_type;location;lat;lon;timestamp;pressure;altitude;pressure_sealevel;temperature;humidity
65997;BME280;52765;52.258;21.052;2023-02-22T00:00:13;100453.91;;;3.37;100.00
65997;BME280;52765;52.258;21.052;2023-02-22T00:02:45;100450.38;;;3.36;100.00
65997;BME280;52765;52.258;21.052;2023-02-22T00:05:14;100457.22;;;3.40;100.00
65997;BME280;52765;52.258;21.052;2023-02-22T00:07:42;100452.31;;;3.34;100.00
65997;BME280;52765;52.258;21.052;2023-02-22T00:10:09;100451.69;;;3.30;100.00
65997;BME280;52765;52.258;21.052;2023-02-22T00:12:41;100454.97;;;3.34;100.00
65997;BME280;52765;52.258;21.052;2023-02-22T00:15:08;100469.34;;;3.44;100.00
65997;BME280;52765;52.258;21.052;2023-02-22T00:17:35;100467.41;;;3.46;100.00
65997;BME280;52765;52.258;21.052;2023-02-22T00:20:01;100459.56;;;3.45;100.00
65997;BME280;52765;52.258;21.052;2023-02-22T00:22:29;100461.13;;;3.34;100.00
65997;BME280;52765;52.258;21.052;2023-02-22T00:24:56;100466.34;;;3.36;100.00
65997;BME280;52765;52.258;21.052;2023-02-22T00:27:22;100468.50;;;3.31;100.00
65997;BME280;52765;52.258;21.052;2023-02-22T00:29:47;100474.91;;;3.28;100.00
65997;BME280;52765;52.258;21.052;2023-02-22T00:32:18;100460.81;;;3.26;100.00
65997;BME280;52765;52.258;21.052;2023-02-22T00:34:44;100468.50;;;3.31;100.00
65997;BME280;52765;52.258;21.052;2023-02-22T00:37:10;100469.38;;;3.31;100.00
65997;BME280;52765;52.258;21.052;2023-02-22T00:39:35;100476.91;;;3.38;100.00
65997;BME280;52765;52.258;21.052;2023-02-22T00:42:02;100482.03;;;3.28;100.00
65997;BME280;52765;52.258;21.052;2023-02-22T00:44:28;100480.66;;;3.22;100.00
65997;BME280;52765;52.258;21.052;2023-02-22T00:46:54;100485.13;;;3.22;100.00
65997;BME280;52765;52.258;21.052;2023-02-22T00:49:19;100485.44;;;3.17;100.00
65997;BME280;52765;52.258;21.052;2023-02-22T00:51:45;100481.28;;;3.13;100.00
65997;BME280;52765;52.258;21.052;2023-02-22T00:54:10;100494.81;;;3.10;100.00
65997;BME280;52765;52.258;21.052;2023-02-22T00:56:36;100498.41;;;3.09;100.00
65997;BME280;52765;52.258;21.052;2023-02-22T00:59:03;100501.19;;;3.07;100.00
65997;BME280;52765;52.258;21.052;2023-02-22T01:01:29;100509.06;;;3.09;100.00
65997;BME280;52765;52.258;21.052;2023-02-22T01:03:54;100511.72;;;3.09;100.00
65997;BME280;52765;52.258;21.052;2023-02-22T01:06:20;100506.63;;;3.06;100.00
65997;BME280;52765;52.258;21.052;2023-02-22T01:08:47;100508.63;;;3.02;100.00
65997;BME280;52765;52.258;21.052;2023-02-22T01:11:16;100510.97;;;2.94;100.00
65997;BME280;52765;52.258;21.052;2023-02-22T01:13:42;100513.38;;;2.84;100.00
65997;BME280;52765;52.258;21.052;2023-02-22T01:16:09;100528.16;;;2.75;100.00
65997;BME280;52765;52.258;21.052;2023-02-22T01:18:35;100518.50;;;2.87;100.00
65997;BME280;52765;52.258;21.052;2023-02-22T01:21:04;100528.53;;;2.96;100.00
65997;BME280;52765;52.258;21.052;2023-02-22T01:23:30;100537.81;;;3.04;100.00
65997;BME280;52765;52.258;21.052;2023-02-22T01:25:56;100533.00;;;2.96;100.00
65997;BME280;52765;52.258;21.052;2023-02-22T01:28:22;100538.75;;;3.03;100.00
65997;BME280;52765;52.258;21.052;2023-02-22T01:30:48;100542.28;;;3.16;100.00
65997;BME280;52765;52.258;21.052;2023-02-22T01:33:14;100539.44;;;3.19;100.00
65997;BME280;52765;52.258;21.052;2023-02-22T01:35:41;100545.59;;;3.20;100.00
65997;BME280;52765;52.258;21.052;2023-02-22T01:38:08;100555.41;;;3.19;100.00
65997;BME280;52765;52.258;21.052;2023-02-22T01:40:39;100552.19;;;3.14;100.00
65997;BME280;52765;52.258;21.052;2023-02-22T01:43:25;100554.03;;;3.13;100.00
65997;BME280;52765;52.258;21.052;2023-02-22T01:45:57;100544.97;;;3.03;100.00
65997;BME280;52765;52.258;21.052;2023-02-22T01:48:34;100556.03;;;3.10;100.00
65997;BME280;52765;52.258;21.052;2023-02-22T01:53:47;100552.81;;;2.92;100.00
65997;BME280;52765;52.258;21.052;2023-02-22T01:56:15;100549.59;;;2.87;100.00
65997;BME280;52765;52.258;21.052;2023-02-22T01:58:45;100546.06;;;2.86;100.00
65997;BME280;52765;52.258;21.052;2023-02-22T02:01:13;100549.78;;;2.84;100.00
65997;BME280;52765;52.258;21.052;2023-02-22T02:03:39;100554.69;;;2.77;100.00
65997;BME280;52765;52.258;21.052;2023-02-22T02:06:10;100561.91;;;2.75;100.00
65997;BME280;52765;52.258;21.052;2023-02-22T02:11:07;100558.38;;;2.74;100.00
65997;BME280;52765;52.258;21.052;2023-02-22T02:13:33;100550.81;;;2.68;100.00
65997;BME280;52765;52.258;21.052;2023-02-22T02:15:59;100560.13;;;2.61;100.00
65997;BME280;52765;52.258;21.052;2023-02-22T02:18:25;100565.47;;;2.61;100.00
65997;BME280;52765;52.258;21.052;2023-02-22T02:26:28;100567.31;;;2.46;100.00
65997;BME280;52765;52.258;21.052;2023-02-22T02:38:49;100578.97;;;2.85;100.00
65997;BME280;52765;52.258;21.052;2023-02-22T02:41:14;100589.53;;;3.00;100.00
65997;BME280;52765;52.258;21.052;2023-02-22T02:43:56;100585.31;;;3.10;100.00
65997;BME280;52765;52.258;21.052;2023-02-22T02:46:30;100583.84;;;3.19;100.00
65997;BME280;52765;52.258;21.052;2023-02-22T02:49:00;100585.66;;;3.31;100.00
65997;BME280;52765;52.258;21.052;2023-02-22T02:51:31;100598.16;;;3.43;100.00
65997;BME280;52765;52.258;21.052;2023-02-22T02:53:59;100582.28;;;3.42;100.00
65997;BME280;52765;52.258;21.052;2023-02-22T02:56:31;100598.06;;;3.45;100.00
65997;BME280;52765;52.258;21.052;2023-02-22T02:58:57;100597.06;;;3.33;100.00
65997;BME280;52765;52.258;21.052;2023-02-22T03:06:49;100603.81;;;3.51;100.00
65997;BME280;52765;52.258;21.052;2023-02-22T03:13:08;100606.38;;;3.53;100.00
65997;BME280;52765;52.258;21.052;2023-02-22T03:18:26;100611.69;;;3.53;100.00
65997;BME280;52765;52.258;21.052;2023-02-22T03:26:15;100624.00;;;3.41;100.00
65997;BME280;52765;52.258;21.052;2023-02-22T03:28:45;100617.63;;;3.31;100.00
65997;BME280;52765;52.258;21.052;2023-02-22T03:31:27;100614.09;;;3.30;100.00
65997;BME280;52765;52.258;21.052;2023-02-22T03:34:00;100629.56;;;3.38;100.00
65997;BME280;52765;52.258;21.052;2023-02-22T03:36:35;100633.31;;;3.48;100.00
65997;BME280;52765;52.258;21.052;2023-02-22T03:39:06;100633.44;;;3.60;100.00
65997;BME280;52765;52.258;21.052;2023-02-22T03:41:35;100643.66;;;3.66;100.00
65997;BME280;52765;52.258;21.052;2023-02-22T03:44:11;100635.03;;;3.75;100.00
65997;BME280;52765;52.258;21.052;2023-02-22T03:46:39;100629.72;;;3.75;100.00
65997;BME280;52765;52.258;21.052;2023-02-22T03:52:32;100638.25;;;3.93;100.00
65997;BME280;52765;52.258;21.052;2023-02-22T03:54:59;100644.22;;;3.84;100.00
65997;BME280;52765;52.258;21.052;2023-02-22T03:57:32;100637.25;;;3.81;100.00
65997;BME280;52765;52.258;21.052;2023-02-22T03:59:59;100641.75;;;3.81;100.00
65997;BME280;52765;52.258;21.052;2023-02-22T04:02:25;100656.06;;;3.80;100.00
65997;BME280;52765;52.258;21.052;2023-02-22T04:04:50;100666.34;;;3.59;100.00
65997;BME280;52765;52.258;21.052;2023-02-22T04:07:16;100649.59;;;3.44;99.70
65997;BME280;52765;52.258;21.052;2023-02-22T04:09:42;100654.25;;;3.27;98.71
65997;BME280;52765;52.258;21.052;2023-02-22T04:12:08;100663.06;;;3.28;98.28
65997;BME280;52765;52.258;21.052;2023-02-22T04:14:33;100663.75;;;3.31;98.50
65997;BME280;52765;52.258;21.052;2023-02-22T04:16:59;100669.28;;;3.28;98.22
65997;BME280;52765;52.258;21.052;2023-02-22T04:19:25;100670.22;;;3.27;98.29
65997;BME280;52765;52.258;21.052;2023-02-22T04:21:51;100666.72;;;3.27;98.28
65997;BME280;52765;52.258;21.052;2023-02-22T04:24:16;100676.50;;;3.26;97.14
65997;BME280;52765;52.258;21.052;2023-02-22T04:26:41;100674.56;;;3.15;97.92
65997;BME280;52765;52.258;21.052;2023-02-22T04:29:07;100679.78;;;3.17;96.83
65997;BME280;52765;52.258;21.052;2023-02-22T04:31:33;100678.38;;;3.11;95.62
65997;BME280;52765;52.258;21.052;2023-02-22T04:33:59;100698.50;;;3.15;96.86
65997;BME280;52765;52.258;21.052;2023-02-22T04:36:25;100688.47;;;3.06;94.97
65997;BME280;52765;52.258;21.052;2023-02-22T04:38:51;100680.69;;;3.03;95.21
65997;BME280;52765;52.258;21.052;2023-02-22T04:41:18;100686.03;;;3.03;96.16
65997;BME280;52765;52.258;21.052;2023-02-22T04:43:43;100678.34;;;2.99;93.49
65997;BME280;52765;52.258;21.052;2023-02-22T04:46:09;100682.69;;;3.00;94.22
65997;BME280;52765;52.258;21.052;2023-02-22T04:48:34;100693.59;;;3.09;94.49
65997;BME280;52765;52.258;21.052;2023-02-22T04:51:00;100694.13;;;3.14;93.37
65997;BME280;52765;52.258;21.052;2023-02-22T04:53:26;100696.16;;;3.11;93.74
65997;BME280;52765;52.258;21.052;2023-02-22T04:55:51;100700.63;;;3.10;94.44
65997;BME280;52765;52.258;21.052;2023-02-22T04:58:17;100695.31;;;3.10;95.04
65997;BME280;52765;52.258;21.052;2023-02-22T05:00:42;100696.16;;;3.11;95.68
65997;BME280;52765;52.258;21.052;2023-02-22T05:03:08;100700.63;;;3.10;95.79
65997;BME280;52765;52.258;21.052;2023-02-22T05:05:33;100700.53;;;3.12;96.08
65997;BME280;52765;52.258;21.052;2023-02-22T05:07:59;100699.88;;;3.08;96.28
65997;BME280;52765;52.258;21.052;2023-02-22T05:10:24;100702.91;;;3.17;96.09
65997;BME280;52765;52.258;21.052;2023-02-22T05:12:50;100702.81;;;3.18;96.35
65997;BME280;52765;52.258;21.052;2023-02-22T05:15:18;100704.38;;;3.21;95.60
65997;BME280;52765;52.258;21.052;2023-02-22T05:17:44;100707.59;;;3.26;94.87
65997;BME280;52765;52.258;21.052;2023-02-22T05:20:25;100711.00;;;3.28;94.72
65997;BME280;52765;52.258;21.052;2023-02-22T05:22:53;100712.28;;;3.22;92.74
65997;BME280;52765;52.258;21.052;2023-02-22T05:25:18;100709.72;;;3.21;92.81
65997;BME280;52765;52.258;21.052;2023-02-22T05:27:49;100701.28;;;3.14;92.18
65997;BME280;52765;52.258;21.052;2023-02-22T05:30:15;100704.78;;;3.14;92.63
65997;BME280;52765;52.258;21.052;2023-02-22T05:32:40;100720.06;;;3.25;91.75
65997;BME280;52765;52.258;21.052;2023-02-22T05:35:06;100727.09;;;3.26;91.17
65997;BME280;52765;52.258;21.052;2023-02-22T05:37:32;100719.81;;;3.15;89.96
65997;BME280;52765;52.258;21.052;2023-02-22T05:39:58;100728.97;;;3.11;88.02
65997;BME280;52765;52.258;21.052;2023-02-22T05:42:24;100735.63;;;3.04;89.49
65997;BME280;52765;52.258;21.052;2023-02-22T05:44:49;100731.03;;;3.06;89.81
65997;BME280;52765;52.258;21.052;2023-02-22T05:47:14;100733.22;;;3.14;88.76
65997;BME280;52765;52.258;21.052;2023-02-22T05:49:40;100742.28;;;3.11;87.70
65997;BME280;52765;52.258;21.052;2023-02-22T05:52:05;100734.28;;;3.11;88.04
65997;BME280;52765;52.258;21.052;2023-02-22T05:54:33;100742.28;;;3.11;86.64
65997;BME280;52765;52.258;21.052;2023-02-22T05:57:00;100746.28;;;3.04;87.68
65997;BME280;52765;52.258;21.052;2023-02-22T05:59:26;100749.44;;;2.96;87.85
65997;BME280;52765;52.258;21.052;2023-02-22T06:01:53;100745.72;;;2.99;88.64
65997;BME280;52765;52.258;21.052;2023-02-22T06:04:18;100753.03;;;2.95;88.40
65997;BME280;52765;52.258;21.052;2023-02-22T06:06:44;100758.81;;;3.02;89.89
65997;BME280;52765;52.258;21.052;2023-02-22T06:09:09;100764.81;;;3.06;88.81
65997;BME280;52765;52.258;21.052;2023-02-22T06:11:35;100751.41;;;3.07;89.35
65997;BME280;52765;52.258;21.052;2023-02-22T06:14:01;100752.06;;;3.11;89.13
65997;BME280;52765;52.258;21.052;2023-02-22T06:16:26;100781.59;;;3.21;88.01
65997;BME280;52765;52.258;21.052;2023-02-22T06:18:52;100772.25;;;3.28;89.08
65997;BME280;52765;52.258;21.052;2023-02-22T06:21:17;100777.56;;;3.28;89.12
65997;BME280;52765;52.258;21.052;2023-02-22T06:23:43;100781.41;;;3.24;88.63
65997;BME280;52765;52.258;21.052;2023-02-22T06:26:09;100780.09;;;3.17;89.33
65997;BME280;52765;52.258;21.052;2023-02-22T06:28:34;100792.28;;;3.06;89.44
65997;BME280;52765;52.258;21.052;2023-02-22T06:31:00;100788.66;;;3.07;88.80
65997;BME280;52765;52.258;21.052;2023-02-22T06:33:25;100789.50;;;3.22;88.76
65997;BME280;52765;52.258;21.052;2023-02-22T06:35:51;100803.38;;;3.27;87.38
65997;BME280;52765;52.258;21.052;2023-02-22T06:38:21;100802.22;;;3.31;86.54
65997;BME280;52765;52.258;21.052;2023-02-22T06:40:47;100804.00;;;3.31;86.72
65997;BME280;52765;52.258;21.052;2023-02-22T06:43:12;100815.31;;;3.34;85.83
65997;BME280;52765;52.258;21.052;2023-02-22T06:45:38;100813.34;;;3.38;86.55
65997;BME280;52765;52.258;21.052;2023-02-22T06:48:03;100809.59;;;3.41;85.98
65997;BME280;52765;52.258;21.052;2023-02-22T06:50:30;100813.13;;;3.41;85.08
65997;BME280;52765;52.258;21.052;2023-02-22T06:52:56;100800.78;;;3.40;85.86
65997;BME280;52765;52.258;21.052;2023-02-22T06:55:25;100818.34;;;3.43;85.38
65997;BME280;52765;52.258;21.052;2023-02-22T06:57:51;100815.38;;;3.47;85.50
65997;BME280;52765;52.258;21.052;2023-02-22T07:00:18;100824.03;;;3.51;85.20
65997;BME280;52765;52.258;21.052;2023-02-22T07:02:45;100817.84;;;3.50;84.05
65997;BME280;52765;52.258;21.052;2023-02-22T07:05:14;100820.31;;;3.54;84.11
65997;BME280;52765;52.258;21.052;2023-02-22T07:07:40;100822.59;;;3.60;84.05
65997;BME280;52765;52.258;21.052;2023-02-22T07:10:07;100825.59;;;3.68;82.52
65997;BME280;52765;52.258;21.052;2023-02-22T07:12:34;100838.91;;;3.68;81.98
65997;BME280;52765;52.258;21.052;2023-02-22T07:15:00;100841.38;;;3.71;81.75
65997;BME280;52765;52.258;21.052;2023-02-22T07:17:25;100840.91;;;3.64;81.30
65997;BME280;52765;52.258;21.052;2023-02-22T07:19:51;100836.66;;;3.62;82.19
65997;BME280;52765;52.258;21.052;2023-02-22T07:22:16;100842.34;;;3.70;82.09
65997;BME280;52765;52.258;21.052;2023-02-22T07:24:42;100843.09;;;3.72;81.96
65997;BME280;52765;52.258;21.052;2023-02-22T07:27:08;100836.03;;;3.71;80.82
65997;BME280;52765;52.258;21.052;2023-02-22T07:29:33;100844.22;;;3.68;81.36
65997;BME280;52765;52.258;21.052;2023-02-22T07:32:01;100834.47;;;3.68;81.32
65997;BME280;52765;52.258;21.052;2023-02-22T07:34:27;100831.25;;;3.76;81.40
65997;BME280;52765;52.258;21.052;2023-02-22T07:36:52;100826.72;;;3.78;81.43
65997;BME280;52765;52.258;21.052;2023-02-22T07:39:18;100828.56;;;3.91;80.44
65997;BME280;52765;52.258;21.052;2023-02-22T07:41:44;100826.53;;;3.94;79.24
65997;BME280;52765;52.258;21.052;2023-02-22T07:44:10;100828.69;;;4.02;78.26
65997;BME280;52765;52.258;21.052;2023-02-22T07:46:37;100831.25;;;4.03;76.98
65997;BME280;52765;52.258;21.052;2023-02-22T07:49:06;100825.63;;;4.08;76.68
65997;BME280;52765;52.258;21.052;2023-02-22T07:51:34;100840.88;;;4.19;75.06
65997;BME280;52765;52.258;21.052;2023-02-22T07:54:00;100836.28;;;4.21;74.85
65997;BME280;52765;52.258;21.052;2023-02-22T07:56:28;100834.50;;;4.21;73.71
65997;BME280;52765;52.258;21.052;2023-02-22T07:58:54;100843.88;;;4.27;73.51
65997;BME280;52765;52.258;21.052;2023-02-22T08:01:20;100842.94;;;4.28;74.01
65997;BME280;52765;52.258;21.052;2023-02-22T08:03:46;100826.81;;;4.30;73.82
65997;BME280;52765;52.258;21.052;2023-02-22T08:06:11;100837.81;;;4.38;73.66
65997;BME280;52765;52.258;21.052;2023-02-22T08:08:37;100831.75;;;4.49;72.08
65997;BME280;52765;52.258;21.052;2023-02-22T08:11:03;100836.44;;;4.58;70.67
65997;BME280;52765;52.258;21.052;2023-02-22T08:13:32;100839.78;;;4.61;70.73
65997;BME280;52765;52.258;21.052;2023-02-22T08:15:57;100851.69;;;4.56;69.72
65997;BME280;52765;52.258;21.052;2023-02-22T08:18:24;100850.19;;;4.39;68.03
65997;BME280;52765;52.258;21.052;2023-02-22T08:20:51;100848.03;;;4.31;69.41
65997;BME280;52765;52.258;21.052;2023-02-22T08:23:18;100849.34;;;4.38;70.00
65997;BME280;52765;52.258;21.052;2023-02-22T08:25:44;100848.72;;;4.48;69.59
65997;BME280;52765;52.258;21.052;2023-02-22T08:28:12;100845.53;;;4.55;69.55
65997;BME280;52765;52.258;21.052;2023-02-22T08:30:39;100856.84;;;4.59;68.16
65997;BME280;52765;52.258;21.052;2023-02-22T08:33:08;100845.09;;;4.61;67.54
65997;BME280;52765;52.258;21.052;2023-02-22T08:35:35;100851.50;;;4.72;67.77
65997;BME280;52765;52.258;21.052;2023-02-22T08:38:03;100847.13;;;4.84;67.06
65997;BME280;52765;52.258;21.052;2023-02-22T08:40:32;100851.28;;;4.88;66.17
65997;BME280;52765;52.258;21.052;2023-02-22T08:42:59;100851.28;;;4.88;65.67
65997;BME280;52765;52.258;21.052;2023-02-22T08:45:25;100871.38;;;4.93;64.96
65997;BME280;52765;52.258;21.052;2023-02-22T08:47:51;100860.91;;;4.90;65.66
65997;BME280;52765;52.258;21.052;2023-02-22T08:50:20;100864.97;;;4.70;66.07
65997;BME280;52765;52.258;21.052;2023-02-22T08:52:46;100867.34;;;4.22;68.66
65997;BME280;52765;52.258;21.052;2023-02-22T08:55:13;100885.63;;;4.01;70.02
65997;BME280;52765;52.258;21.052;2023-02-22T08:57:39;100882.25;;;3.84;72.59
65997;BME280;52765;52.258;21.052;2023-02-22T09:00:05;100878.44;;;3.88;72.35
65997;BME280;52765;52.258;21.052;2023-02-22T09:02:31;100886.06;;;3.95;70.46
65997;BME280;52765;52.258;21.052;2023-02-22T09:04:56;100874.75;;;4.04;70.62
65997;BME280;52765;52.258;21.052;2023-02-22T09:07:22;100872.59;;;4.23;69.40
65997;BME280;52765;52.258;21.052;2023-02-22T09:09:49;100881.69;;;4.47;69.76
65997;BME280;52765;52.258;21.052;2023-02-22T09:12:14;100884.25;;;4.48;68.59
65997;BME280;52765;52.258;21.052;2023-02-22T09:14:39;100879.66;;;4.37;68.49
65997;BME280;52765;52.258;21.052;2023-02-22T09:17:07;100884.78;;;4.40;68.59
65997;BME280;52765;52.258;21.052;2023-02-22T09:19:35;100879.66;;;4.37;68.80
65997;BME280;52765;52.258;21.052;2023-02-22T09:22:01;100880.94;;;4.44;67.75
65997;BME280;52765;52.258;21.052;2023-02-22T09:24:26;100879.25;;;4.43;66.81
65997;BME280;52765;52.258;21.052;2023-02-22T09:26:52;100887.47;;;4.53;66.28
65997;BME280;52765;52.258;21.052;2023-02-22T09:29:22;100892.47;;;4.58;65.76
65997;BME280;52765;52.258;21.052;2023-02-22T09:31:50;100886.94;;;4.48;65.33
65997;BME280;52765;52.258;21.052;2023-02-22T09:34:20;100887.69;;;4.50;65.97
65997;BME280;52765;52.258;21.052;2023-02-22T09:36:48;100890.94;;;4.28;66.38
65997;BME280;52765;52.258;21.052;2023-02-22T09:39:17;100900.19;;;4.22;67.46
65997;BME280;52765;52.258;21.052;2023-02-22T09:46:56;100905.19;;;4.14;67.27
65997;BME280;52765;52.258;21.052;2023-02-22T09:49:34;100893.56;;;4.15;67.27
65997;BME280;52765;52.258;21.052;2023-02-22T09:55:00;100905.47;;;4.10;67.54
65997;BME280;52765;52.258;21.052;2023-02-22T09:57:36;100901.06;;;3.96;65.64
65997;BME280;52765;52.258;21.052;2023-02-22T10:00:16;100913.66;;;3.94;66.07
65997;BME280;52765;52.258;21.052;2023-02-22T10:02:54;100917.34;;;3.91;66.45
65997;BME280;52765;52.258;21.052;2023-02-22T10:05:25;100919.66;;;3.83;67.92
65997;BME280;52765;52.258;21.052;2023-02-22T10:07:57;100925.06;;;3.68;68.46
65997;BME280;52765;52.258;21.052;2023-02-22T10:10:25;100932.38;;;3.65;69.31
65997;BME280;52765;52.258;21.052;2023-02-22T10:15:35;100943.63;;;3.41;70.22
65997;BME280;52765;52.258;21.052;2023-02-22T10:27:21;100934.28;;;2.91;69.39
65997;BME280;52765;52.258;21.052;2023-02-22T10:30:25;100953.50;;;2.96;68.11
65997;BME280;52765;52.258;21.052;2023-02-22T10:33:17;100939.06;;;3.00;68.86
65997;BME280;52765;52.258;21.052;2023-02-22T10:36:03;100927.28;;;3.04;68.64
65997;BME280;52765;52.258;21.052;2023-02-22T10:38:32;100936.09;;;3.05;67.62
65997;BME280;52765;52.258;21.052;2023-02-22T10:43:44;100948.50;;;3.20;66.03
65997;BME280;52765;52.258;21.052;2023-02-22T10:46:12;100952.84;;;3.21;64.96
65997;BME280;52765;52.258;21.052;2023-02-22T10:48:47;100948.19;;;3.10;63.66
65997;BME280;52765;52.258;21.052;2023-02-22T10:51:20;100970.44;;;2.95;63.60
65997;BME280;52765;52.258;21.052;2023-02-22T10:56:46;100952.94;;;2.91;63.94
65997;BME280;52765;52.258;21.052;2023-02-22T10:59:36;100936.66;;;2.81;62.94
65997;BME280;52765;52.258;21.052;2023-02-22T11:02:21;100948.28;;;2.94;62.71
65997;BME280;52765;52.258;21.052;2023-02-22T11:05:41;100939.44;;;2.94;62.05
65997;BME280;52765;52.258;21.052;2023-02-22T11:08:33;100930.22;;;2.85;61.30
65997;BME280;52765;52.258;21.052;2023-02-22T11:11:24;100937.13;;;2.88;61.18
65997;BME280;52765;52.258;21.052;2023-02-22T11:13:59;100941.88;;;2.83;61.40
65997;BME280;52765;52.258;21.052;2023-02-22T11:16:36;100944.72;;;2.80;62.08
65997;BME280;52765;52.258;21.052;2023-02-22T11:19:30;100952.47;;;2.99;60.59
65997;BME280;52765;52.258;21.052;2023-02-22T11:22:09;100928.91;;;3.07;60.79
65997;BME280;52765;52.258;21.052;2023-02-22T11:24:53;100932.13;;;3.26;61.24
65997;BME280;52765;52.258;21.052;2023-02-22T11:27:46;100932.59;;;3.47;59.04
65997;BME280;52765;52.258;21.052;2023-02-22T11:30:36;100943.78;;;3.67;59.30
65997;BME280;52765;52.258;21.052;2023-02-22T11:35:55;100948.59;;;3.89;57.82
65997;BME280;52765;52.258;21.052;2023-02-22T11:38:31;100953.44;;;3.97;58.11
65997;BME280;52765;52.258;21.052;2023-02-22T11:41:14;100946.63;;;3.78;56.79
65997;BME280;52765;52.258;21.052;2023-02-22T11:43:51;100938.94;;;3.74;57.30
65997;BME280;52765;52.258;21.052;2023-02-22T11:46:19;100951.97;;;3.78;57.57
65997;BME280;52765;52.258;21.052;2023-02-22T11:49:01;100950.97;;;3.94;56.75
65997;BME280;52765;52.258;21.052;2023-02-22T11:51:48;100934.22;;;3.92;56.60
65997;BME280;52765;52.258;21.052;2023-02-22T12:00:44;100952.41;;;4.39;54.94
65997;BME280;52765;52.258;21.052;2023-02-22T12:06:30;100945.59;;;4.35;53.31
65997;BME280;52765;52.258;21.052;2023-02-22T12:19:50;100947.53;;;4.46;53.74
65997;BME280;52765;52.258;21.052;2023-02-22T12:22:35;100946.69;;;4.45;52.39
65997;BME280;52765;52.258;21.052;2023-02-22T12:25:25;100941.72;;;4.26;52.81
65997;BME280;52765;52.258;21.052;2023-02-22T12:28:01;100958.81;;;4.37;52.81
65997;BME280;52765;52.258;21.052;2023-02-22T12:30:37;100941.75;;;4.39;52.54
65997;BME280;52765;52.258;21.052;2023-02-22T12:33:10;100950.28;;;4.44;52.20
65997;BME280;52765;52.258;21.052;2023-02-22T12:35:41;100934.91;;;4.35;52.36
65997;BME280;52765;52.258;21.052;2023-02-22T12:38:17;100953.25;;;4.27;52.95
65997;BME280;52765;52.258;21.052;2023-02-22T12:41:11;100956.50;;;4.18;52.91
65997;BME280;52765;52.258;21.052;2023-02-22T12:44:07;100958.31;;;4.17;52.89
65997;BME280;52765;52.258;21.052;2023-02-22T12:46:43;100971.09;;;4.12;51.94
65997;BME280;52765;52.258;21.052;2023-02-22T12:54:46;100975.31;;;4.02;53.71
65997;BME280;52765;52.258;21.052;2023-02-22T12:57:33;100968.03;;;4.18;52.43
65997;BME280;52765;52.258;21.052;2023-02-22T13:03:06;100971.00;;;4.14;52.95
65997;BME280;52765;52.258;21.052;2023-02-22T13:05:37;100980.84;;;4.26;52.48
65997;BME280;52765;52.258;21.052;2023-02-22T13:11:13;100989.66;;;4.14;52.69
65997;BME280;52765;52.258;21.052;2023-02-22T13:21:37;101010.00;;;4.02;53.24
65997;BME280;52765;52.258;21.052;2023-02-22T13:24:27;100996.38;;;4.06;53.78
65997;BME280;52765;52.258;21.052;2023-02-22T13:27:03;100999.50;;;4.13;53.53
65997;BME280;52765;52.258;21.052;2023-02-22T13:29:34;101001.19;;;4.14;53.32
65997;BME280;52765;52.258;21.052;2023-02-22T13:35:29;101007.63;;;3.83;53.24
65997;BME280;52765;52.258;21.052;2023-02-22T13:46:27;101003.56;;;3.63;54.32
65997;BME280;52765;52.258;21.052;2023-02-22T13:49:07;101008.50;;;3.55;53.90
65997;BME280;52765;52.258;21.052;2023-02-22T13:57:00;101013.44;;;3.46;54.52
65997;BME280;52765;52.258;21.052;2023-02-22T13:59:36;101003.09;;;3.42;54.81
65997;BME280;52765;52.258;21.052;2023-02-22T14:02:04;101006.59;;;3.42;55.11
65997;BME280;52765;52.258;21.052;2023-02-22T14:04:36;101007.06;;;3.34;55.18
65997;BME280;52765;52.258;21.052;2023-02-22T14:17:34;101030.91;;;3.07;54.74
65997;BME280;52765;52.258;21.052;2023-02-22T14:20:02;101031.56;;;2.96;54.03
65997;BME280;52765;52.258;21.052;2023-02-22T14:22:29;101042.06;;;2.84;54.47
65997;BME280;52765;52.258;21.052;2023-02-22T14:24:58;101028.09;;;2.80;55.05
65997;BME280;52765;52.258;21.052;2023-02-22T14:27:38;101026.00;;;2.85;55.03
65997;BME280;52765;52.258;21.052;2023-02-22T14:30:04;101034.25;;;2.81;55.01
65997;BME280;52765;52.258;21.052;2023-02-22T14:32:33;101036.94;;;2.65;55.56
65997;BME280;52765;52.258;21.052;2023-02-22T14:35:19;101035.00;;;2.68;55.38
65997;BME280;52765;52.258;21.052;2023-02-22T14:37:54;101027.44;;;2.61;54.82
65997;BME280;52765;52.258;21.052;2023-02-22T14:40:30;101022.88;;;2.63;55.66
65997;BME280;52765;52.258;21.052;2023-02-22T14:45:25;101031.19;;;2.72;54.60
65997;BME280;52765;52.258;21.052;2023-02-22T14:48:07;101034.78;;;2.71;55.07
65997;BME280;52765;52.258;21.052;2023-02-22T14:55:43;101038.81;;;2.48;54.89
65997;BME280;52765;52.258;21.052;2023-02-22T14:58:35;101049.06;;;2.54;55.19
65997;BME280;52765;52.258;21.052;2023-02-22T15:01:27;101043.34;;;2.46;55.15
65997;BME280;52765;52.258;21.052;2023-02-22T15:03:55;101048.22;;;2.38;55.29
65997;BME280;52765;52.258;21.052;2023-02-22T15:06:27;101049.97;;;2.39;55.21
65997;BME280;52765;52.258;21.052;2023-02-22T15:11:31;101038.09;;;2.45;55.18
65997;BME280;52765;52.258;21.052;2023-02-22T15:14:01;101047.47;;;2.52;55.51
65997;BME280;52765;52.258;21.052;2023-02-22T15:16:49;101047.97;;;2.43;55.65
65997;BME280;52765;52.258;21.052;2023-02-22T15:19:26;101042.16;;;2.36;55.42
65997;BME280;52765;52.258;21.052;2023-02-22T15:21:56;101043.09;;;2.35;56.08
65997;BME280;52765;52.258;21.052;2023-02-22T15:24:42;101042.91;;;2.38;56.42
65997;BME280;52765;52.258;21.052;2023-02-22T15:27:16;101043.41;;;2.45;56.36
65997;BME280;52765;52.258;21.052;2023-02-22T15:30:07;101054.31;;;2.56;55.76